Map

Track Data

SID SEASON NUMBER BASIN SUBBASIN NAME ISO_TIME NATURE LAT LON WMO_WIND WMO_PRES WMO_AGENCY TRACK_TYPE DIST2LAND LANDFALL IFLAG USA_AGENCY USA_ATCF_ID USA_LAT USA_LON USA_RECORD USA_STATUS USA_WIND USA_PRES USA_SSHS USA_R34_NE USA_R34_SE USA_R34_SW USA_R34_NW USA_R50_NE USA_R50_SE USA_R50_SW USA_R50_NW USA_R64_NE USA_R64_SE USA_R64_SW USA_R64_NW USA_POCI USA_ROCI USA_RMW USA_EYE TOKYO_LAT TOKYO_LON TOKYO_GRADE TOKYO_WIND TOKYO_PRES TOKYO_R50_DIR TOKYO_R50_LONG TOKYO_R50_SHORT TOKYO_R30_DIR TOKYO_R30_LONG TOKYO_R30_SHORT TOKYO_LAND CMA_LAT CMA_LON CMA_CAT CMA_WIND CMA_PRES HKO_LAT HKO_LON HKO_CAT HKO_WIND HKO_PRES NEWDELHI_LAT NEWDELHI_LON NEWDELHI_GRADE NEWDELHI_WIND NEWDELHI_PRES NEWDELHI_CI NEWDELHI_DP NEWDELHI_POCI REUNION_LAT REUNION_LON REUNION_TYPE REUNION_WIND REUNION_PRES REUNION_TNUM REUNION_CI REUNION_RMW REUNION_R34_NE REUNION_R34_SE REUNION_R34_SW REUNION_R34_NW REUNION_R50_NE REUNION_R50_SE REUNION_R50_SW REUNION_R50_NW REUNION_R64_NE REUNION_R64_SE REUNION_R64_SW REUNION_R64_NW BOM_LAT BOM_LON BOM_TYPE BOM_WIND BOM_PRES BOM_TNUM BOM_CI BOM_RMW BOM_R34_NE BOM_R34_SE BOM_R34_SW BOM_R34_NW BOM_R50_NE BOM_R50_SE BOM_R50_SW BOM_R50_NW BOM_R64_NE BOM_R64_SE BOM_R64_SW BOM_R64_NW BOM_ROCI BOM_POCI BOM_EYE BOM_POS_METHOD BOM_PRES_METHOD NADI_LAT NADI_LON NADI_CAT NADI_WIND NADI_PRES WELLINGTON_LAT WELLINGTON_LON WELLINGTON_WIND WELLINGTON_PRES DS824_LAT DS824_LON DS824_STAGE DS824_WIND DS824_PRES TD9636_LAT TD9636_LON TD9636_STAGE TD9636_WIND TD9636_PRES TD9635_LAT TD9635_LON TD9635_WIND TD9635_PRES TD9635_ROCI NEUMANN_LAT NEUMANN_LON NEUMANN_CLASS NEUMANN_WIND NEUMANN_PRES MLC_LAT MLC_LON MLC_CLASS MLC_WIND MLC_PRES USA_GUST BOM_GUST BOM_GUST_PER REUNION_GUST REUNION_GUST_PER USA_SEAHGT USA_SEARAD_NE USA_SEARAD_SE USA_SEARAD_SW USA_SEARAD_NW STORM_SPEED STORM_DIR
1867300N19310 1867 27 NA NA NOT_NAMED 1867-10-27 00:00:00 TS 19.0000 -50.5000 40 hurdat_atl main 1461 1420 O_____________ hurdat_atl AL091867 19.0000 -50.5000 TS 40 0 9 270
1867300N19310 1867 27 NA NA NOT_NAMED 1867-10-27 03:00:00 TS 19.0002 -50.9900 main 1420 1395 P_____________ AL091867 19.0002 -50.9900 TS 40 0 7 270
1867300N19310 1867 27 NA NA NOT_NAMED 1867-10-27 06:00:00 TS 19.0000 -51.2857 40 hurdat_atl main 1395 1356 O____________O hurdat_atl AL091867 19.0000 -51.5000 TS 40 0 19.0000 -50.0000 TS 40 8 270
1867300N19310 1867 27 NA NA NOT_NAMED 1867-10-27 09:00:00 TS 18.9995 -51.7840 main 1356 1317 P____________P AL091867 18.9999 -52.0425 TS 45 0 18.9981 -50.7501 TS 45 10 270
1867300N19310 1867 27 NA NA NOT_NAMED 1867-10-27 12:00:00 TS 19.0000 -52.3000 50 hurdat_atl main 1317 1280 O____________O hurdat_atl AL091867 19.0000 -52.6000 TS 50 0 19.0000 -51.5000 TS 50 10 270
1867300N19310 1867 27 NA NA NOT_NAMED 1867-10-27 15:00:00 TS 19.0022 -52.8400 main 1280 1236 P____________P AL091867 18.9997 -53.1350 TS 50 0 19.0072 -52.2499 TS 50 11 270
1867300N19310 1867 27 NA NA NOT_NAMED 1867-10-27 18:00:00 TS 19.0000 -53.4667 50 hurdat_atl main 1229 1188 O____________O hurdat_atl AL091867 19.0000 -53.7000 TS 50 0 19.0000 -53.0000 TS 50 12 269
1867300N19310 1867 27 NA NA NOT_NAMED 1867-10-27 21:00:00 TS 18.9832 -54.1401 main 1188 1139 P____________P AL091867 18.9999 -54.3350 TS 55 0 18.9497 -53.7502 TS 55 13 269
1867300N19310 1867 27 NA NA NOT_NAMED 1867-10-28 00:00:00 TS 18.9667 -54.8333 60 hurdat_atl main 1139 1065 O____________O hurdat_atl AL091867 19.0000 -55.0000 TS 60 0 18.9000 -54.5000 TS 60 13 269
1867300N19310 1867 27 NA NA NOT_NAMED 1867-10-28 03:00:00 TS 18.9664 -55.5116 main 1065 992 P____________P AL091867 18.9997 -55.6425 TS 60 0 18.8997 -55.2498 TS 60 13 270
1867300N19310 1867 27 NA NA NOT_NAMED 1867-10-28 06:00:00 TS 18.9667 -56.2000 60 hurdat_atl main 992 918 O____________O hurdat_atl AL091867 19.0000 -56.3000 TS 60 0 18.9000 -56.0000 TS 60 13 269
1867300N19310 1867 27 NA NA NOT_NAMED 1867-10-28 09:00:00 TS 18.9523 -56.9117 main 918 844 P____________P AL091867 18.9997 -56.9850 TS 65 1 18.8574 -56.7651 TS 60 14 269
1867300N19310 1867 27 NA NA NOT_NAMED 1867-10-28 12:00:00 TS 18.9333 -57.6333 70 hurdat_atl main 844 771 O____________O hurdat_atl AL091867 19.0000 -57.7000 HU 70 1 18.8000 -57.5000 TS 60 14 268
1867300N19310 1867 27 NA NA NOT_NAMED 1867-10-28 15:00:00 TS 18.9138 -58.3450 main 771 697 P____________P AL091867 18.9998 -58.4425 HU 75 1 18.7419 -58.1500 TS 67 14 269
1867300N19310 1867 27 NA NA NOT_NAMED 1867-10-28 18:00:00 TS 18.9000 -59.0667 80 hurdat_atl main 687 613 O____________O hurdat_atl AL091867 19.0000 -59.2000 HU 80 1 18.7000 -58.8000 HU 75 14 270
1867300N19310 1867 27 NA NA NOT_NAMED 1867-10-28 21:00:00 TS 18.9049 -59.8215 main 613 540 P____________P AL091867 19.0074 -59.9649 HU 85 2 18.6999 -59.5348 HU 87 14 270
1867300N19310 1867 27 NA NA NOT_NAMED 1867-10-29 00:00:00 TS 18.9000 -60.5667 90 hurdat_atl main 529 466 O____________O hurdat_atl AL091867 19.0000 -60.7000 HU 90 2 18.7000 -60.3000 MH 100 14 268
1867300N19310 1867 27 NA NA NOT_NAMED 1867-10-29 03:00:00 TS 18.8671 -61.2599 main 456 392 P____________P AL091867 18.9721 -61.3649 HU 95 2 18.6572 -61.0501 MH 107 13 266
1867300N19310 1867 27 NA NA NOT_NAMED 1867-10-29 06:00:00 TS 18.8000 -61.9333 100 hurdat_atl main 392 318 O____________O hurdat_atl AL091867 18.9000 -62.0000 HU 100 3 18.6000 -61.8000 MH 115 13 262
1867300N19310 1867 27 NA CS NOT_NAMED 1867-10-29 09:00:00 TS 18.6880 -62.6067 main 318 243 P____________P AL091867 18.7571 -62.6351 HU 105 3 18.5497 -62.5500 MH 112 13 260
1867300N19310 1867 27 NA CS NOT_NAMED 1867-10-29 12:00:00 TS 18.5667 -63.3000 110 hurdat_atl main 243 169 O____________O hurdat_atl AL091867 18.6000 -63.3000 HU 110 3 18.5000 -63.3000 MH 110 14 261
1867300N19310 1867 27 NA CS NOT_NAMED 1867-10-29 15:00:00 TS 18.4730 -64.0300 main 169 84 P____________P AL091867 18.4847 -64.0200 HU 105 3 18.4497 -64.0500 MH 105 14 263
1867300N19310 1867 27 NA CS NOT_NAMED 1867-10-29 18:00:00 TS 18.4000 -64.8000 100 952 hurdat_atl main 84 0 O____________O hurdat_atl AL091867 18.4000 -64.8000 HU 100 952 3 18.4000 -64.8000 MH 100 952 15 265
1867300N19310 1867 27 NA CS NOT_NAMED 1867-10-29 21:00:00 TS 18.3424 -65.6141 main 0 0 P____________P AL091867 18.3424 -65.6424 HU 90 2 18.3423 -65.5576 MH 100 16 266
1867300N19310 1867 27 NA NA NOT_NAMED 1867-10-30 00:00:00 TS 18.3000 -66.4333 80 hurdat_atl main 0 0 O____________O hurdat_atl AL091867 18.3000 -66.5000 HU 80 1 18.3000 -66.3000 MH 100 15 267
1867300N19310 1867 27 NA CS NOT_NAMED 1867-10-30 03:00:00 TS 18.2564 -67.2150 main 0 0 P____________P AL091867 18.2422 -67.3150 HU 75 1 18.2847 -67.0150 MH 87 15 267
1867300N19310 1867 27 NA CS NOT_NAMED 1867-10-30 06:00:00 TS 18.2333 -67.9667 70 hurdat_atl main 53 0 O____________O hurdat_atl AL091867 18.2000 -68.1000 HU 70 1 18.3000 -67.7000 HU 75 14 269
1867300N19310 1867 27 NA CS NOT_NAMED 1867-10-30 09:00:00 TS 18.2319 -68.6709 main 0 0 P____________P AL091867 18.1767 -68.8277 HU 75 1 18.3422 -68.3574 HU 75 14 271
1867300N19310 1867 27 NA CS NOT_NAMED 1867-10-30 12:00:00 TS 18.2667 -69.4000 80 hurdat_atl main 22 0 O____________O hurdat_atl AL091867 18.2000 -69.6000 HU 80 1 18.4000 -69.0000 HU 75 15 274
1867300N19310 1867 27 NA NA NOT_NAMED 1867-10-30 15:00:00 TS 18.3274 -70.2301 main 0 0 P____________P AL091867 18.2848 -70.5124 HU 70 1 18.4124 -69.6654 HU 72 15 276
1867300N19310 1867 27 NA NA NOT_NAMED 1867-10-30 18:00:00 TS 18.4400 -71.0200 60 hurdat_atl main 0 0 O____________O hurdat_atl AL091867 18.4000 -71.5000 TS 60 0 18.5000 -70.3000 HU 70 14 283
1867300N19310 1867 27 NA NA NOT_NAMED 1867-10-30 21:00:00 TS 18.6341 -71.6824 main 0 0 P____________P AL091867 18.5059 -72.4998 TS 50 0 18.7622 -70.8649 HU 67 11 296
1867300N19310 1867 27 NA NA NOT_NAMED 1867-10-31 00:00:00 TS 18.9333 -72.1000 40 hurdat_atl main 0 0 O____________O hurdat_atl AL091867 18.6000 -73.5000 TS 40 0 19.1000 -71.4000 HU 65 8 340
1867300N19310 1867 27 NA NA NOT_NAMED 1867-10-31 03:00:00 TS 19.4001 -71.9800 main 0 0 _____________P AL091867 TS -1 19.4001 -71.9800 HU 62 9 334
1867300N19310 1867 27 NA NA NOT_NAMED 1867-10-31 06:00:00 TS 19.7000 -72.5000 main 0 0 _____________O 19.7000 -72.5000 TS 60 11 305
1867300N19310 1867 27 NA NA NOT_NAMED 1867-10-31 09:00:00 TS 19.9998 -72.8952 main 11 11 _____________P 19.9998 -72.8952 TS 55 9 312
1867300N19310 1867 27 NA NA NOT_NAMED 1867-10-31 12:00:00 TS 20.3000 -73.2000 main 45 35 _____________O 20.3000 -73.2000 TS 50 8 317
1867300N19310 1867 27 NA NA NOT_NAMED 1867-10-31 15:00:00 TS 20.6000 -73.4950 main 35 10 _____________P 20.6000 -73.4950 TS 45 8 322
1867300N19310 1867 27 NA NA NOT_NAMED 1867-10-31 18:00:00 TS 20.9000 -73.7000 main 10 0 _____________O 20.9000 -73.7000 TS 40 7 336
1867300N19310 1867 27 NA NA NOT_NAMED 1867-10-31 21:00:00 TS 21.2000 -73.7851 main 15 15 _____________P 21.2000 -73.7851 TS 35 6 351
1867300N19310 1867 27 NA NA NOT_NAMED 1867-11-01 00:00:00 TS 21.5000 -73.8000 main 45 _____________O 21.5000 -73.8000 TD 30 6 0

About IBTrACS Database

This database is a web-friendly format of International Best Track Archive for Climate Stewardship (IBTrACS), a global best track data archive curated by NOAA dating back to 1842.

Updated: 2021-10-27